sensor_id;sensor_type;location;lat;lon;timestamp;P1;durP1;ratioP1;P2;durP2;ratioP2
29302;SDS011;60019;45.556;12.004;2024-02-23T00:04:53;24.25;;;17.45;;
29302;SDS011;60019;45.556;12.004;2024-02-23T00:10:55;27.52;;;19.10;;
29302;SDS011;60019;45.556;12.004;2024-02-23T00:16:57;26.10;;;17.58;;
29302;SDS011;60019;45.556;12.004;2024-02-23T00:22:59;26.25;;;18.60;;
29302;SDS011;60019;45.556;12.004;2024-02-23T00:29:02;25.15;;;16.98;;
29302;SDS011;60019;45.556;12.004;2024-02-23T00:35:03;22.88;;;15.88;;
29302;SDS011;60019;45.556;12.004;2024-02-23T00:41:05;21.55;;;14.68;;
29302;SDS011;60019;45.556;12.004;2024-02-23T00:47:07;20.98;;;15.27;;
29302;SDS011;60019;45.556;12.004;2024-02-23T00:53:10;19.38;;;14.10;;
29302;SDS011;60019;45.556;12.004;2024-02-23T00:59:11;19.85;;;13.45;;
29302;SDS011;60019;45.556;12.004;2024-02-23T01:05:14;19.33;;;14.73;;
29302;SDS011;60019;45.556;12.004;2024-02-23T01:11:15;20.55;;;15.07;;
29302;SDS011;60019;45.556;12.004;2024-02-23T01:17:17;18.20;;;13.93;;
29302;SDS011;60019;45.556;12.004;2024-02-23T01:23:19;19.55;;;14.13;;
29302;SDS011;60019;45.556;12.004;2024-02-23T01:29:24;21.63;;;14.63;;
29302;SDS011;60019;45.556;12.004;2024-02-23T01:35:27;19.77;;;13.38;;
29302;SDS011;60019;45.556;12.004;2024-02-23T01:41:29;17.90;;;13.02;;
29302;SDS011;60019;45.556;12.004;2024-02-23T01:47:31;18.90;;;13.75;;
29302;SDS011;60019;45.556;12.004;2024-02-23T01:53:33;18.33;;;12.38;;
29302;SDS011;60019;45.556;12.004;2024-02-23T01:59:38;15.48;;;11.40;;
29302;SDS011;60019;45.556;12.004;2024-02-23T02:05:39;14.75;;;12.00;;
29302;SDS011;60019;45.556;12.004;2024-02-23T02:11:45;18.70;;;12.88;;
29302;SDS011;60019;45.556;12.004;2024-02-23T02:17:48;15.07;;;11.27;;
29302;SDS011;60019;45.556;12.004;2024-02-23T02:23:49;15.20;;;11.27;;
29302;SDS011;60019;45.556;12.004;2024-02-23T02:29:51;13.00;;;9.90;;
29302;SDS011;60019;45.556;12.004;2024-02-23T02:35:53;14.18;;;10.25;;
29302;SDS011;60019;45.556;12.004;2024-02-23T02:41:55;16.90;;;11.50;;
29302;SDS011;60019;45.556;12.004;2024-02-23T02:47:59;12.88;;;8.85;;
29302;SDS011;60019;45.556;12.004;2024-02-23T02:54:02;11.65;;;9.70;;
29302;SDS011;60019;45.556;12.004;2024-02-23T03:00:04;13.55;;;9.13;;
29302;SDS011;60019;45.556;12.004;2024-02-23T03:06:06;13.20;;;9.43;;
29302;SDS011;60019;45.556;12.004;2024-02-23T03:12:08;10.38;;;7.68;;
29302;SDS011;60019;45.556;12.004;2024-02-23T03:18:10;10.35;;;8.32;;
29302;SDS011;60019;45.556;12.004;2024-02-23T03:24:12;10.25;;;7.15;;
29302;SDS011;60019;45.556;12.004;2024-02-23T03:30:13;10.18;;;6.72;;
29302;SDS011;60019;45.556;12.004;2024-02-23T03:36:16;7.07;;;6.15;;
29302;SDS011;60019;45.556;12.004;2024-02-23T03:42:18;7.70;;;5.85;;
29302;SDS011;60019;45.556;12.004;2024-02-23T03:48:19;8.93;;;5.85;;
29302;SDS011;60019;45.556;12.004;2024-02-23T03:54:21;5.72;;;4.88;;
29302;SDS011;60019;45.556;12.004;2024-02-23T04:00:23;7.05;;;5.45;;
29302;SDS011;60019;45.556;12.004;2024-02-23T04:06:25;7.72;;;5.70;;
29302;SDS011;60019;45.556;12.004;2024-02-23T04:12:27;6.13;;;5.10;;
29302;SDS011;60019;45.556;12.004;2024-02-23T04:18:29;5.80;;;4.57;;
29302;SDS011;60019;45.556;12.004;2024-02-23T04:24:30;4.85;;;4.25;;
29302;SDS011;60019;45.556;12.004;2024-02-23T04:30:32;5.65;;;4.57;;
29302;SDS011;60019;45.556;12.004;2024-02-23T04:36:34;5.97;;;4.90;;
29302;SDS011;60019;45.556;12.004;2024-02-23T04:42:36;5.72;;;4.65;;
29302;SDS011;60019;45.556;12.004;2024-02-23T04:48:37;8.25;;;5.57;;
29302;SDS011;60019;45.556;12.004;2024-02-23T04:54:39;7.03;;;5.38;;
29302;SDS011;60019;45.556;12.004;2024-02-23T05:00:42;6.97;;;5.38;;
29302;SDS011;60019;45.556;12.004;2024-02-23T05:06:44;7.45;;;4.97;;
29302;SDS011;60019;45.556;12.004;2024-02-23T05:12:45;5.88;;;5.07;;
29302;SDS011;60019;45.556;12.004;2024-02-23T05:18:47;5.88;;;4.75;;
29302;SDS011;60019;45.556;12.004;2024-02-23T05:24:49;4.65;;;3.70;;
29302;SDS011;60019;45.556;12.004;2024-02-23T05:30:51;6.18;;;3.58;;
29302;SDS011;60019;45.556;12.004;2024-02-23T05:36:53;3.38;;;3.00;;
29302;SDS011;60019;45.556;12.004;2024-02-23T05:42:55;4.90;;;3.70;;
29302;SDS011;60019;45.556;12.004;2024-02-23T05:48:57;7.75;;;4.43;;
29302;SDS011;60019;45.556;12.004;2024-02-23T05:54:59;4.82;;;3.55;;
29302;SDS011;60019;45.556;12.004;2024-02-23T06:01:01;7.50;;;4.30;;
29302;SDS011;60019;45.556;12.004;2024-02-23T06:07:03;7.85;;;3.67;;
29302;SDS011;60019;45.556;12.004;2024-02-23T06:13:05;5.43;;;2.97;;
29302;SDS011;60019;45.556;12.004;2024-02-23T06:19:07;8.23;;;2.70;;
29302;SDS011;60019;45.556;12.004;2024-02-23T06:25:08;5.13;;;2.60;;
29302;SDS011;60019;45.556;12.004;2024-02-23T06:31:12;7.25;;;2.42;;
29302;SDS011;60019;45.556;12.004;2024-02-23T06:37:14;5.60;;;2.53;;
29302;SDS011;60019;45.556;12.004;2024-02-23T06:43:16;5.03;;;2.78;;
29302;SDS011;60019;45.556;12.004;2024-02-23T06:49:17;6.38;;;3.20;;
29302;SDS011;60019;45.556;12.004;2024-02-23T06:55:19;4.68;;;2.75;;
29302;SDS011;60019;45.556;12.004;2024-02-23T07:01:21;4.15;;;2.55;;
29302;SDS011;60019;45.556;12.004;2024-02-23T07:07:23;7.15;;;2.80;;
29302;SDS011;60019;45.556;12.004;2024-02-23T07:13:25;5.63;;;2.88;;
29302;SDS011;60019;45.556;12.004;2024-02-23T07:19:27;6.70;;;3.03;;
29302;SDS011;60019;45.556;12.004;2024-02-23T07:25:28;6.57;;;2.90;;
29302;SDS011;60019;45.556;12.004;2024-02-23T07:31:30;7.82;;;3.60;;
29302;SDS011;60019;45.556;12.004;2024-02-23T07:37:32;10.93;;;2.75;;
29302;SDS011;60019;45.556;12.004;2024-02-23T07:43:34;7.25;;;3.28;;
29302;SDS011;60019;45.556;12.004;2024-02-23T07:49:36;7.95;;;3.67;;
29302;SDS011;60019;45.556;12.004;2024-02-23T07:55:38;7.68;;;3.22;;
29302;SDS011;60019;45.556;12.004;2024-02-23T08:01:39;5.13;;;3.42;;
29302;SDS011;60019;45.556;12.004;2024-02-23T08:07:42;10.68;;;3.53;;
29302;SDS011;60019;45.556;12.004;2024-02-23T08:13:43;8.10;;;3.17;;
29302;SDS011;60019;45.556;12.004;2024-02-23T08:19:46;7.65;;;3.63;;
29302;SDS011;60019;45.556;12.004;2024-02-23T08:25:47;7.63;;;3.42;;
29302;SDS011;60019;45.556;12.004;2024-02-23T08:31:49;8.77;;;3.50;;
29302;SDS011;60019;45.556;12.004;2024-02-23T08:37:51;7.38;;;3.28;;
29302;SDS011;60019;45.556;12.004;2024-02-23T08:43:53;6.68;;;3.15;;
29302;SDS011;60019;45.556;12.004;2024-02-23T08:49:56;10.30;;;4.18;;
29302;SDS011;60019;45.556;12.004;2024-02-23T18:59:10;6.50;;;5.55;;
29302;SDS011;60019;45.556;12.004;2024-02-23T19:05:11;18.33;;;11.38;;
29302;SDS011;60019;45.556;12.004;2024-02-23T19:11:13;27.98;;;16.23;;
29302;SDS011;60019;45.556;12.004;2024-02-23T19:17:15;37.13;;;19.65;;
29302;SDS011;60019;45.556;12.004;2024-02-23T19:23:17;26.48;;;14.63;;
29302;SDS011;60019;45.556;12.004;2024-02-23T19:29:19;22.65;;;12.88;;
29302;SDS011;60019;45.556;12.004;2024-02-23T19:35:21;14.65;;;9.85;;
29302;SDS011;60019;45.556;12.004;2024-02-23T19:41:23;13.45;;;8.65;;
29302;SDS011;60019;45.556;12.004;2024-02-23T19:47:26;14.18;;;9.15;;
29302;SDS011;60019;45.556;12.004;2024-02-23T19:53:27;13.93;;;8.63;;
29302;SDS011;60019;45.556;12.004;2024-02-23T19:59:29;12.35;;;9.00;;
29302;SDS011;60019;45.556;12.004;2024-02-23T20:05:33;11.38;;;8.80;;
29302;SDS011;60019;45.556;12.004;2024-02-23T20:11:35;10.52;;;7.75;;
29302;SDS011;60019;45.556;12.004;2024-02-23T20:17:37;13.10;;;8.65;;
29302;SDS011;60019;45.556;12.004;2024-02-23T20:23:39;13.68;;;8.00;;
29302;SDS011;60019;45.556;12.004;2024-02-23T20:29:42;10.57;;;7.18;;
29302;SDS011;60019;45.556;12.004;2024-02-23T20:35:44;11.60;;;7.88;;
29302;SDS011;60019;45.556;12.004;2024-02-23T20:41:46;14.43;;;8.27;;
29302;SDS011;60019;45.556;12.004;2024-02-23T20:47:47;11.00;;;8.30;;
29302;SDS011;60019;45.556;12.004;2024-02-23T20:53:49;9.88;;;7.07;;
29302;SDS011;60019;45.556;12.004;2024-02-23T20:59:51;8.85;;;6.47;;
29302;SDS011;60019;45.556;12.004;2024-02-23T21:05:53;25.40;;;16.90;;
29302;SDS011;60019;45.556;12.004;2024-02-23T21:11:56;72.53;;;38.63;;
29302;SDS011;60019;45.556;12.004;2024-02-23T21:17:58;46.05;;;24.83;;
29302;SDS011;60019;45.556;12.004;2024-02-23T21:24:00;34.10;;;18.77;;
29302;SDS011;60019;45.556;12.004;2024-02-23T21:30:05;23.10;;;14.25;;
29302;SDS011;60019;45.556;12.004;2024-02-23T21:36:07;15.48;;;10.40;;
29302;SDS011;60019;45.556;12.004;2024-02-23T21:42:09;15.13;;;10.05;;
29302;SDS011;60019;45.556;12.004;2024-02-23T21:48:11;12.10;;;8.70;;
29302;SDS011;60019;45.556;12.004;2024-02-23T21:54:13;9.15;;;7.05;;
29302;SDS011;60019;45.556;12.004;2024-02-23T22:00:14;11.88;;;7.53;;
29302;SDS011;60019;45.556;12.004;2024-02-23T22:12:19;40.47;;;14.32;;
29302;SDS011;60019;45.556;12.004;2024-02-23T22:18:21;45.08;;;16.88;;
29302;SDS011;60019;45.556;12.004;2024-02-23T22:24:23;44.22;;;17.48;;
29302;SDS011;60019;45.556;12.004;2024-02-23T22:30:24;30.02;;;13.90;;
29302;SDS011;60019;45.556;12.004;2024-02-23T22:36:26;31.10;;;13.50;;
29302;SDS011;60019;45.556;12.004;2024-02-23T22:42:28;23.65;;;11.15;;
29302;SDS011;60019;45.556;12.004;2024-02-23T22:48:30;17.85;;;9.90;;
29302;SDS011;60019;45.556;12.004;2024-02-23T22:54:32;23.73;;;10.93;;
29302;SDS011;60019;45.556;12.004;2024-02-23T23:00:34;20.27;;;10.75;;
29302;SDS011;60019;45.556;12.004;2024-02-23T23:06:37;16.20;;;9.15;;
29302;SDS011;60019;45.556;12.004;2024-02-23T23:12:39;16.23;;;8.05;;
29302;SDS011;60019;45.556;12.004;2024-02-23T23:18:41;23.35;;;12.52;;
29302;SDS011;60019;45.556;12.004;2024-02-23T23:24:43;49.25;;;23.77;;
29302;SDS011;60019;45.556;12.004;2024-02-23T23:30:45;31.08;;;15.48;;
29302;SDS011;60019;45.556;12.004;2024-02-23T23:36:51;22.50;;;12.50;;
29302;SDS011;60019;45.556;12.004;2024-02-23T23:42:52;17.38;;;9.82;;
29302;SDS011;60019;45.556;12.004;2024-02-23T23:48:54;15.60;;;8.38;;
29302;SDS011;60019;45.556;12.004;2024-02-23T23:54:56;9.98;;;6.55;;
